sensor_id;sensor_type;location;lat;lon;timestamp;P1;durP1;ratioP1;P2;durP2;ratioP2
49978;SDS011;35869;50.990;6.962;2022-07-15T00:00:13;2.92;;;1.10;;
49978;SDS011;35869;50.990;6.962;2022-07-15T00:05:13;4.95;;;1.52;;
49978;SDS011;35869;50.990;6.962;2022-07-15T00:10:14;2.55;;;1.25;;
49978;SDS011;35869;50.990;6.962;2022-07-15T00:15:14;4.88;;;1.40;;
49978;SDS011;35869;50.990;6.962;2022-07-15T00:20:15;2.97;;;1.63;;
49978;SDS011;35869;50.990;6.962;2022-07-15T00:25:17;6.38;;;1.42;;
49978;SDS011;35869;50.990;6.962;2022-07-15T00:35:18;3.47;;;1.60;;
49978;SDS011;35869;50.990;6.962;2022-07-15T00:40:19;5.43;;;1.57;;
49978;SDS011;35869;50.990;6.962;2022-07-15T00:45:22;2.45;;;1.65;;
49978;SDS011;35869;50.990;6.962;2022-07-15T00:50:25;5.63;;;2.22;;
49978;SDS011;35869;50.990;6.962;2022-07-15T00:55:27;3.65;;;1.80;;
49978;SDS011;35869;50.990;6.962;2022-07-15T01:00:31;11.30;;;2.38;;
49978;SDS011;35869;50.990;6.962;2022-07-15T01:05:32;3.45;;;2.00;;
49978;SDS011;35869;50.990;6.962;2022-07-15T01:10:33;4.22;;;2.10;;
49978;SDS011;35869;50.990;6.962;2022-07-15T01:15:34;5.38;;;2.75;;
49978;SDS011;35869;50.990;6.962;2022-07-15T01:20:38;5.80;;;2.60;;
49978;SDS011;35869;50.990;6.962;2022-07-15T01:25:40;5.90;;;2.67;;
49978;SDS011;35869;50.990;6.962;2022-07-15T01:35:41;4.88;;;2.20;;
49978;SDS011;35869;50.990;6.962;2022-07-15T01:45:42;2.65;;;1.70;;
49978;SDS011;35869;50.990;6.962;2022-07-15T01:50:43;3.03;;;1.80;;
49978;SDS011;35869;50.990;6.962;2022-07-15T01:55:43;3.60;;;2.30;;
49978;SDS011;35869;50.990;6.962;2022-07-15T02:00:43;5.55;;;2.25;;
49978;SDS011;35869;50.990;6.962;2022-07-15T02:10:44;3.30;;;1.98;;
49978;SDS011;35869;50.990;6.962;2022-07-15T02:15:44;8.82;;;2.30;;
49978;SDS011;35869;50.990;6.962;2022-07-15T02:20:44;8.13;;;2.40;;
49978;SDS011;35869;50.990;6.962;2022-07-15T02:25:45;4.65;;;2.33;;
49978;SDS011;35869;50.990;6.962;2022-07-15T02:30:45;6.55;;;2.22;;
49978;SDS011;35869;50.990;6.962;2022-07-15T02:40:46;6.40;;;2.27;;
49978;SDS011;35869;50.990;6.962;2022-07-15T02:45:46;8.57;;;2.40;;
49978;SDS011;35869;50.990;6.962;2022-07-15T02:55:47;5.68;;;1.90;;
49978;SDS011;35869;50.990;6.962;2022-07-15T03:00:48;8.00;;;2.33;;
49978;SDS011;35869;50.990;6.962;2022-07-15T03:10:48;5.35;;;2.20;;
49978;SDS011;35869;50.990;6.962;2022-07-15T03:20:49;5.32;;;2.00;;
49978;SDS011;35869;50.990;6.962;2022-07-15T03:25:53;5.72;;;1.80;;
49978;SDS011;35869;50.990;6.962;2022-07-15T03:30:53;5.13;;;1.70;;
49978;SDS011;35869;50.990;6.962;2022-07-15T03:35:53;5.07;;;1.80;;
49978;SDS011;35869;50.990;6.962;2022-07-15T03:45:54;5.20;;;2.53;;
49978;SDS011;35869;50.990;6.962;2022-07-15T03:50:57;5.22;;;2.05;;
49978;SDS011;35869;50.990;6.962;2022-07-15T03:55:57;5.93;;;2.42;;
49978;SDS011;35869;50.990;6.962;2022-07-15T04:00:58;5.65;;;2.17;;
49978;SDS011;35869;50.990;6.962;2022-07-15T04:05:58;7.43;;;2.72;;
49978;SDS011;35869;50.990;6.962;2022-07-15T04:10:58;7.97;;;2.97;;
49978;SDS011;35869;50.990;6.962;2022-07-15T04:15:58;8.77;;;2.50;;
49978;SDS011;35869;50.990;6.962;2022-07-15T04:25:59;5.25;;;2.65;;
49978;SDS011;35869;50.990;6.962;2022-07-15T04:31:00;8.67;;;2.43;;
49978;SDS011;35869;50.990;6.962;2022-07-15T04:36:00;8.55;;;2.35;;
49978;SDS011;35869;50.990;6.962;2022-07-15T04:41:00;5.97;;;2.30;;
49978;SDS011;35869;50.990;6.962;2022-07-15T04:46:00;5.10;;;2.47;;
49978;SDS011;35869;50.990;6.962;2022-07-15T04:51:01;6.43;;;2.60;;
49978;SDS011;35869;50.990;6.962;2022-07-15T04:56:01;9.45;;;2.70;;
49978;SDS011;35869;50.990;6.962;2022-07-15T05:06:01;7.18;;;3.17;;
49978;SDS011;35869;50.990;6.962;2022-07-15T05:11:02;9.13;;;2.90;;
49978;SDS011;35869;50.990;6.962;2022-07-15T05:21:02;7.10;;;2.75;;
49978;SDS011;35869;50.990;6.962;2022-07-15T05:31:03;8.23;;;3.90;;
49978;SDS011;35869;50.990;6.962;2022-07-15T05:36:03;6.53;;;3.03;;
49978;SDS011;35869;50.990;6.962;2022-07-15T05:46:04;5.88;;;3.45;;
49978;SDS011;35869;50.990;6.962;2022-07-15T05:51:05;6.30;;;2.58;;
49978;SDS011;35869;50.990;6.962;2022-07-15T05:56:06;6.32;;;2.92;;
49978;SDS011;35869;50.990;6.962;2022-07-15T06:06:06;4.85;;;2.25;;
49978;SDS011;35869;50.990;6.962;2022-07-15T06:11:07;8.50;;;2.78;;
49978;SDS011;35869;50.990;6.962;2022-07-15T06:16:07;8.65;;;3.13;;
49978;SDS011;35869;50.990;6.962;2022-07-15T06:26:08;11.52;;;2.45;;
49978;SDS011;35869;50.990;6.962;2022-07-15T06:36:08;9.10;;;2.50;;
49978;SDS011;35869;50.990;6.962;2022-07-15T06:41:08;5.72;;;1.90;;
49978;SDS011;35869;50.990;6.962;2022-07-15T06:46:09;5.80;;;1.95;;
49978;SDS011;35869;50.990;6.962;2022-07-15T06:56:10;3.37;;;1.37;;
49978;SDS011;35869;50.990;6.962;2022-07-15T07:06:10;4.05;;;1.58;;
49978;SDS011;35869;50.990;6.962;2022-07-15T07:16:11;3.30;;;1.40;;
49978;SDS011;35869;50.990;6.962;2022-07-15T07:26:12;7.60;;;1.48;;
49978;SDS011;35869;50.990;6.962;2022-07-15T07:31:14;1.75;;;1.20;;
49978;SDS011;35869;50.990;6.962;2022-07-15T07:36:14;3.00;;;1.50;;
49978;SDS011;35869;50.990;6.962;2022-07-15T07:41:14;6.45;;;1.20;;
49978;SDS011;35869;50.990;6.962;2022-07-15T07:51:16;4.28;;;1.38;;
49978;SDS011;35869;50.990;6.962;2022-07-15T07:56:17;4.22;;;1.30;;
49978;SDS011;35869;50.990;6.962;2022-07-15T08:06:17;3.13;;;1.08;;
49978;SDS011;35869;50.990;6.962;2022-07-15T08:11:18;2.05;;;1.13;;
49978;SDS011;35869;50.990;6.962;2022-07-15T08:21:18;2.60;;;1.08;;
49978;SDS011;35869;50.990;6.962;2022-07-15T08:26:18;5.10;;;1.30;;
49978;SDS011;35869;50.990;6.962;2022-07-15T08:31:19;1.88;;;0.70;;
49978;SDS011;35869;50.990;6.962;2022-07-15T08:36:19;2.13;;;1.00;;
49978;SDS011;35869;50.990;6.962;2022-07-15T08:46:20;3.45;;;1.25;;
49978;SDS011;35869;50.990;6.962;2022-07-15T08:51:25;1.92;;;1.00;;
49978;SDS011;35869;50.990;6.962;2022-07-15T08:56:26;2.78;;;1.00;;
49978;SDS011;35869;50.990;6.962;2022-07-15T09:11:36;1.75;;;0.90;;
49978;SDS011;35869;50.990;6.962;2022-07-15T09:16:37;5.18;;;2.08;;
49978;SDS011;35869;50.990;6.962;2022-07-15T09:26:41;4.55;;;1.30;;
49978;SDS011;35869;50.990;6.962;2022-07-15T09:31:41;3.22;;;1.45;;
49978;SDS011;35869;50.990;6.962;2022-07-15T09:36:43;5.47;;;1.73;;
49978;SDS011;35869;50.990;6.962;2022-07-15T09:41:47;7.65;;;1.33;;
49978;SDS011;35869;50.990;6.962;2022-07-15T09:51:56;2.85;;;1.83;;
49978;SDS011;35869;50.990;6.962;2022-07-15T09:56:58;3.20;;;1.88;;
49978;SDS011;35869;50.990;6.962;2022-07-15T10:01:59;6.88;;;2.65;;
49978;SDS011;35869;50.990;6.962;2022-07-15T10:07:00;6.43;;;2.50;;
49978;SDS011;35869;50.990;6.962;2022-07-15T10:12:08;3.75;;;1.83;;
49978;SDS011;35869;50.990;6.962;2022-07-15T10:17:22;4.13;;;2.20;;
49978;SDS011;35869;50.990;6.962;2022-07-15T10:22:55;4.25;;;2.03;;
49978;SDS011;35869;50.990;6.962;2022-07-15T10:33:10;3.58;;;1.92;;
49978;SDS011;35869;50.990;6.962;2022-07-15T10:49:31;4.45;;;1.85;;
49978;SDS011;35869;50.990;6.962;2022-07-15T10:59:22;2.92;;;1.42;;
49978;SDS011;35869;50.990;6.962;2022-07-15T11:04:24;3.25;;;1.33;;
49978;SDS011;35869;50.990;6.962;2022-07-15T11:15:04;2.88;;;1.00;;
49978;SDS011;35869;50.990;6.962;2022-07-15T11:30:50;3.50;;;1.42;;
49978;SDS011;35869;50.990;6.962;2022-07-15T11:35:51;1.88;;;1.05;;
49978;SDS011;35869;50.990;6.962;2022-07-15T11:40:53;4.18;;;1.17;;
49978;SDS011;35869;50.990;6.962;2022-07-15T11:45:56;2.10;;;0.95;;
49978;SDS011;35869;50.990;6.962;2022-07-15T11:50:56;3.50;;;1.33;;
49978;SDS011;35869;50.990;6.962;2022-07-15T11:55:57;4.22;;;0.70;;
49978;SDS011;35869;50.990;6.962;2022-07-15T12:00:59;2.55;;;1.10;;
49978;SDS011;35869;50.990;6.962;2022-07-15T12:11:24;2.53;;;1.00;;
49978;SDS011;35869;50.990;6.962;2022-07-15T12:16:33;5.10;;;1.27;;
49978;SDS011;35869;50.990;6.962;2022-07-15T12:21:45;0.82;;;0.70;;
49978;SDS011;35869;50.990;6.962;2022-07-15T12:32:00;2.75;;;0.95;;
49978;SDS011;35869;50.990;6.962;2022-07-15T12:37:05;1.33;;;0.80;;
49978;SDS011;35869;50.990;6.962;2022-07-15T12:42:05;2.83;;;0.93;;
49978;SDS011;35869;50.990;6.962;2022-07-15T12:47:06;2.97;;;0.95;;
49978;SDS011;35869;50.990;6.962;2022-07-15T13:02:28;2.45;;;0.75;;
49978;SDS011;35869;50.990;6.962;2022-07-15T13:07:29;3.40;;;0.77;;
49978;SDS011;35869;50.990;6.962;2022-07-15T13:12:29;2.70;;;0.80;;
49978;SDS011;35869;50.990;6.962;2022-07-15T13:17:29;3.22;;;0.90;;
49978;SDS011;35869;50.990;6.962;2022-07-15T13:22:32;2.17;;;1.00;;
49978;SDS011;35869;50.990;6.962;2022-07-15T13:27:32;4.07;;;1.20;;
49978;SDS011;35869;50.990;6.962;2022-07-15T13:32:33;3.00;;;0.70;;
49978;SDS011;35869;50.990;6.962;2022-07-15T13:37:33;2.27;;;0.83;;
49978;SDS011;35869;50.990;6.962;2022-07-15T13:42:33;2.87;;;1.30;;
49978;SDS011;35869;50.990;6.962;2022-07-15T13:47:34;1.52;;;0.70;;
49978;SDS011;35869;50.990;6.962;2022-07-15T13:52:40;4.93;;;0.80;;
49978;SDS011;35869;50.990;6.962;2022-07-15T13:57:48;3.15;;;1.30;;
49978;SDS011;35869;50.990;6.962;2022-07-15T14:02:49;3.20;;;1.23;;
49978;SDS011;35869;50.990;6.962;2022-07-15T14:07:51;2.95;;;0.85;;
49978;SDS011;35869;50.990;6.962;2022-07-15T14:12:51;2.50;;;0.77;;
49978;SDS011;35869;50.990;6.962;2022-07-15T14:17:51;2.33;;;0.80;;
49978;SDS011;35869;50.990;6.962;2022-07-15T14:22:51;3.03;;;0.80;;
49978;SDS011;35869;50.990;6.962;2022-07-15T14:27:52;4.07;;;1.00;;
49978;SDS011;35869;50.990;6.962;2022-07-15T14:32:52;1.40;;;0.70;;
49978;SDS011;35869;50.990;6.962;2022-07-15T14:37:53;2.28;;;0.80;;
49978;SDS011;35869;50.990;6.962;2022-07-15T14:42:53;3.75;;;0.60;;
49978;SDS011;35869;50.990;6.962;2022-07-15T14:47:53;2.53;;;0.55;;
49978;SDS011;35869;50.990;6.962;2022-07-15T14:52:53;2.25;;;0.70;;
49978;SDS011;35869;50.990;6.962;2022-07-15T14:57:53;2.25;;;1.02;;
49978;SDS011;35869;50.990;6.962;2022-07-15T15:02:54;1.73;;;0.70;;
49978;SDS011;35869;50.990;6.962;2022-07-15T15:07:54;2.72;;;0.80;;
49978;SDS011;35869;50.990;6.962;2022-07-15T15:12:54;4.60;;;0.80;;
49978;SDS011;35869;50.990;6.962;2022-07-15T15:17:55;7.13;;;0.93;;
49978;SDS011;35869;50.990;6.962;2022-07-15T15:22:55;1.25;;;0.60;;
49978;SDS011;35869;50.990;6.962;2022-07-15T15:27:55;1.83;;;0.87;;
49978;SDS011;35869;50.990;6.962;2022-07-15T15:32:56;3.13;;;0.90;;
49978;SDS011;35869;50.990;6.962;2022-07-15T15:37:56;0.77;;;0.43;;
49978;SDS011;35869;50.990;6.962;2022-07-15T15:42:57;3.70;;;0.80;;
49978;SDS011;35869;50.990;6.962;2022-07-15T15:47:57;3.42;;;0.82;;
49978;SDS011;35869;50.990;6.962;2022-07-15T15:52:57;3.40;;;0.70;;
49978;SDS011;35869;50.990;6.962;2022-07-15T15:57:58;2.70;;;0.97;;
49978;SDS011;35869;50.990;6.962;2022-07-15T16:02:58;4.13;;;0.70;;
49978;SDS011;35869;50.990;6.962;2022-07-15T16:07:58;9.73;;;1.02;;
49978;SDS011;35869;50.990;6.962;2022-07-15T16:12:59;1.53;;;0.50;;
49978;SDS011;35869;50.990;6.962;2022-07-15T16:17:59;2.85;;;0.98;;
49978;SDS011;35869;50.990;6.962;2022-07-15T16:22:59;3.90;;;1.35;;
49978;SDS011;35869;50.990;6.962;2022-07-15T16:28:00;3.23;;;0.93;;
49978;SDS011;35869;50.990;6.962;2022-07-15T16:33:03;4.68;;;0.90;;
49978;SDS011;35869;50.990;6.962;2022-07-15T16:38:04;3.20;;;0.63;;
49978;SDS011;35869;50.990;6.962;2022-07-15T16:43:06;3.38;;;0.98;;
49978;SDS011;35869;50.990;6.962;2022-07-15T16:48:07;5.35;;;1.30;;
49978;SDS011;35869;50.990;6.962;2022-07-15T16:53:07;1.67;;;0.65;;
49978;SDS011;35869;50.990;6.962;2022-07-15T16:58:07;1.92;;;0.90;;
49978;SDS011;35869;50.990;6.962;2022-07-15T17:03:08;4.50;;;1.25;;
49978;SDS011;35869;50.990;6.962;2022-07-15T17:08:08;2.57;;;0.53;;
49978;SDS011;35869;50.990;6.962;2022-07-15T17:13:08;3.63;;;0.88;;
49978;SDS011;35869;50.990;6.962;2022-07-15T17:18:08;4.25;;;0.88;;
49978;SDS011;35869;50.990;6.962;2022-07-15T17:23:09;2.83;;;0.80;;
49978;SDS011;35869;50.990;6.962;2022-07-15T17:28:09;2.20;;;0.68;;
49978;SDS011;35869;50.990;6.962;2022-07-15T17:33:09;5.38;;;1.00;;
49978;SDS011;35869;50.990;6.962;2022-07-15T17:38:10;5.72;;;0.73;;
49978;SDS011;35869;50.990;6.962;2022-07-15T17:43:10;1.60;;;0.73;;
49978;SDS011;35869;50.990;6.962;2022-07-15T17:48:10;1.45;;;0.70;;
49978;SDS011;35869;50.990;6.962;2022-07-15T17:53:11;2.22;;;0.88;;
49978;SDS011;35869;50.990;6.962;2022-07-15T17:58:11;2.88;;;1.10;;
49978;SDS011;35869;50.990;6.962;2022-07-15T18:03:11;3.15;;;0.60;;
49978;SDS011;35869;50.990;6.962;2022-07-15T18:08:12;2.83;;;0.70;;
49978;SDS011;35869;50.990;6.962;2022-07-15T18:13:15;3.53;;;0.82;;
49978;SDS011;35869;50.990;6.962;2022-07-15T18:18:15;2.05;;;0.88;;
49978;SDS011;35869;50.990;6.962;2022-07-15T18:23:15;2.42;;;0.93;;
49978;SDS011;35869;50.990;6.962;2022-07-15T18:28:16;3.23;;;0.80;;
49978;SDS011;35869;50.990;6.962;2022-07-15T18:33:16;3.75;;;1.20;;
49978;SDS011;35869;50.990;6.962;2022-07-15T18:38:17;3.13;;;0.90;;
49978;SDS011;35869;50.990;6.962;2022-07-15T18:43:17;3.07;;;0.87;;
49978;SDS011;35869;50.990;6.962;2022-07-15T18:48:18;2.65;;;0.73;;
49978;SDS011;35869;50.990;6.962;2022-07-15T18:53:19;2.75;;;1.23;;
49978;SDS011;35869;50.990;6.962;2022-07-15T18:58:21;6.30;;;0.82;;
49978;SDS011;35869;50.990;6.962;2022-07-15T19:03:22;2.70;;;1.00;;
49978;SDS011;35869;50.990;6.962;2022-07-15T19:08:23;1.33;;;0.70;;
49978;SDS011;35869;50.990;6.962;2022-07-15T19:13:23;3.70;;;0.80;;
49978;SDS011;35869;50.990;6.962;2022-07-15T19:18:24;2.35;;;0.70;;
49978;SDS011;35869;50.990;6.962;2022-07-15T19:23:24;2.57;;;0.90;;
49978;SDS011;35869;50.990;6.962;2022-07-15T19:28:26;2.95;;;0.82;;
49978;SDS011;35869;50.990;6.962;2022-07-15T19:33:26;3.87;;;0.97;;
49978;SDS011;35869;50.990;6.962;2022-07-15T19:38:27;4.83;;;1.00;;
49978;SDS011;35869;50.990;6.962;2022-07-15T19:43:27;3.35;;;1.00;;
49978;SDS011;35869;50.990;6.962;2022-07-15T19:48:29;8.32;;;1.25;;
49978;SDS011;35869;50.990;6.962;2022-07-15T19:53:29;3.33;;;1.20;;
49978;SDS011;35869;50.990;6.962;2022-07-15T19:58:29;3.13;;;0.90;;
49978;SDS011;35869;50.990;6.962;2022-07-15T20:03:29;1.67;;;1.00;;
49978;SDS011;35869;50.990;6.962;2022-07-15T20:08:30;4.10;;;0.80;;
49978;SDS011;35869;50.990;6.962;2022-07-15T20:13:30;4.43;;;0.90;;
49978;SDS011;35869;50.990;6.962;2022-07-15T20:18:30;4.32;;;0.80;;
49978;SDS011;35869;50.990;6.962;2022-07-15T20:23:31;3.57;;;1.17;;
49978;SDS011;35869;50.990;6.962;2022-07-15T20:28:31;3.10;;;1.10;;
49978;SDS011;35869;50.990;6.962;2022-07-15T20:33:31;2.30;;;1.02;;
49978;SDS011;35869;50.990;6.962;2022-07-15T20:38:32;2.93;;;0.93;;
49978;SDS011;35869;50.990;6.962;2022-07-15T20:43:32;1.33;;;1.00;;
49978;SDS011;35869;50.990;6.962;2022-07-15T20:48:32;3.37;;;1.10;;
49978;SDS011;35869;50.990;6.962;2022-07-15T20:53:33;2.58;;;1.00;;
49978;SDS011;35869;50.990;6.962;2022-07-15T20:58:33;4.43;;;1.00;;
49978;SDS011;35869;50.990;6.962;2022-07-15T21:03:33;1.85;;;0.88;;
49978;SDS011;35869;50.990;6.962;2022-07-15T21:08:33;2.38;;;1.25;;
49978;SDS011;35869;50.990;6.962;2022-07-15T21:13:34;2.03;;;1.25;;
49978;SDS011;35869;50.990;6.962;2022-07-15T21:18:34;2.28;;;1.10;;
49978;SDS011;35869;50.990;6.962;2022-07-15T21:23:35;2.92;;;1.20;;
49978;SDS011;35869;50.990;6.962;2022-07-15T21:28:35;3.90;;;1.73;;
49978;SDS011;35869;50.990;6.962;2022-07-15T21:33:35;4.45;;;1.45;;
49978;SDS011;35869;50.990;6.962;2022-07-15T21:38:35;3.30;;;1.57;;
49978;SDS011;35869;50.990;6.962;2022-07-15T21:43:36;1.83;;;1.47;;
49978;SDS011;35869;50.990;6.962;2022-07-15T21:48:36;4.25;;;1.02;;
49978;SDS011;35869;50.990;6.962;2022-07-15T21:53:36;4.40;;;1.77;;
49978;SDS011;35869;50.990;6.962;2022-07-15T21:58:36;4.47;;;1.87;;
49978;SDS011;35869;50.990;6.962;2022-07-15T22:03:37;3.00;;;1.52;;
49978;SDS011;35869;50.990;6.962;2022-07-15T22:08:37;2.37;;;1.10;;
49978;SDS011;35869;50.990;6.962;2022-07-15T22:18:38;3.25;;;1.48;;
49978;SDS011;35869;50.990;6.962;2022-07-15T22:23:38;4.97;;;1.67;;
49978;SDS011;35869;50.990;6.962;2022-07-15T22:33:39;4.18;;;1.55;;
49978;SDS011;35869;50.990;6.962;2022-07-15T22:38:39;4.82;;;1.90;;
49978;SDS011;35869;50.990;6.962;2022-07-15T22:43:39;4.13;;;1.42;;
49978;SDS011;35869;50.990;6.962;2022-07-15T22:53:40;4.25;;;1.67;;
49978;SDS011;35869;50.990;6.962;2022-07-15T22:58:40;5.88;;;1.58;;
49978;SDS011;35869;50.990;6.962;2022-07-15T23:03:40;2.67;;;1.67;;
49978;SDS011;35869;50.990;6.962;2022-07-15T23:08:41;5.10;;;2.00;;
49978;SDS011;35869;50.990;6.962;2022-07-15T23:13:41;2.28;;;1.40;;
49978;SDS011;35869;50.990;6.962;2022-07-15T23:18:41;3.50;;;1.52;;
49978;SDS011;35869;50.990;6.962;2022-07-15T23:23:41;3.30;;;1.60;;
49978;SDS011;35869;50.990;6.962;2022-07-15T23:28:42;6.03;;;2.13;;
49978;SDS011;35869;50.990;6.962;2022-07-15T23:33:42;4.18;;;1.98;;
49978;SDS011;35869;50.990;6.962;2022-07-15T23:43:42;3.13;;;1.70;;
49978;SDS011;35869;50.990;6.962;2022-07-15T23:48:43;4.25;;;1.65;;
49978;SDS011;35869;50.990;6.962;2022-07-15T23:53:43;14.90;;;1.88;;
49978;SDS011;35869;50.990;6.962;2022-07-15T23:58:43;4.10;;;2.00;;
